sensor_id;sensor_type;location;lat;lon;timestamp;P1;durP1;ratioP1;P2;durP2;ratioP2
32292;SDS011;43233;48.608;8.838;2022-09-30T00:01:42;18.17;;;11.13;;
32292;SDS011;43233;48.608;8.838;2022-09-30T00:04:11;18.63;;;12.23;;
32292;SDS011;43233;48.608;8.838;2022-09-30T00:06:39;14.20;;;11.40;;
32292;SDS011;43233;48.608;8.838;2022-09-30T00:09:05;16.53;;;11.20;;
32292;SDS011;43233;48.608;8.838;2022-09-30T00:11:31;13.60;;;9.97;;
32292;SDS011;43233;48.608;8.838;2022-09-30T00:13:59;9.20;;;7.43;;
32292;SDS011;43233;48.608;8.838;2022-09-30T00:16:27;14.20;;;6.70;;
32292;SDS011;43233;48.608;8.838;2022-09-30T00:18:58;7.80;;;6.23;;
32292;SDS011;43233;48.608;8.838;2022-09-30T00:21:24;10.33;;;6.83;;
32292;SDS011;43233;48.608;8.838;2022-09-30T00:23:52;8.00;;;5.53;;
32292;SDS011;43233;48.608;8.838;2022-09-30T00:26:19;5.27;;;4.57;;
32292;SDS011;43233;48.608;8.838;2022-09-30T00:28:48;5.97;;;4.60;;
32292;SDS011;43233;48.608;8.838;2022-09-30T00:31:16;3.93;;;3.53;;
32292;SDS011;43233;48.608;8.838;2022-09-30T00:33:43;5.60;;;4.40;;
32292;SDS011;43233;48.608;8.838;2022-09-30T00:36:29;4.17;;;3.77;;
32292;SDS011;43233;48.608;8.838;2022-09-30T00:38:55;5.30;;;4.30;;
32292;SDS011;43233;48.608;8.838;2022-09-30T00:41:20;4.63;;;4.23;;
32292;SDS011;43233;48.608;8.838;2022-09-30T00:43:46;5.17;;;4.40;;
32292;SDS011;43233;48.608;8.838;2022-09-30T00:49:16;4.10;;;3.70;;
32292;SDS011;43233;48.608;8.838;2022-09-30T00:51:48;3.40;;;3.20;;
32292;SDS011;43233;48.608;8.838;2022-09-30T00:54:25;3.77;;;3.47;;
32292;SDS011;43233;48.608;8.838;2022-09-30T00:56:56;6.50;;;4.57;;
32292;SDS011;43233;48.608;8.838;2022-09-30T00:59:29;5.97;;;4.47;;
32292;SDS011;43233;48.608;8.838;2022-09-30T01:02:01;6.70;;;5.47;;
32292;SDS011;43233;48.608;8.838;2022-09-30T01:04:27;11.17;;;5.57;;
32292;SDS011;43233;48.608;8.838;2022-09-30T01:06:56;7.00;;;4.93;;
32292;SDS011;43233;48.608;8.838;2022-09-30T01:09:25;5.70;;;5.10;;
32292;SDS011;43233;48.608;8.838;2022-09-30T01:11:51;6.13;;;4.70;;
32292;SDS011;43233;48.608;8.838;2022-09-30T01:14:18;8.50;;;4.90;;
32292;SDS011;43233;48.608;8.838;2022-09-30T01:22:41;7.00;;;4.40;;
32292;SDS011;43233;48.608;8.838;2022-09-30T01:30:43;4.20;;;3.80;;
32292;SDS011;43233;48.608;8.838;2022-09-30T01:36:23;4.17;;;3.33;;
32292;SDS011;43233;48.608;8.838;2022-09-30T01:42:05;5.30;;;4.07;;
32292;SDS011;43233;48.608;8.838;2022-09-30T01:47:31;8.03;;;4.17;;
32292;SDS011;43233;48.608;8.838;2022-09-30T01:50:20;5.70;;;5.10;;
32292;SDS011;43233;48.608;8.838;2022-09-30T01:55:47;5.93;;;4.50;;
32292;SDS011;43233;48.608;8.838;2022-09-30T02:00:54;9.03;;;4.50;;
32292;SDS011;43233;48.608;8.838;2022-09-30T02:03:30;5.57;;;4.43;;
32292;SDS011;43233;48.608;8.838;2022-09-30T02:06:24;5.03;;;3.70;;
32292;SDS011;43233;48.608;8.838;2022-09-30T02:08:57;4.00;;;3.60;;
32292;SDS011;43233;48.608;8.838;2022-09-30T02:11:28;4.50;;;4.10;;
32292;SDS011;43233;48.608;8.838;2022-09-30T02:13:59;5.80;;;4.53;;
32292;SDS011;43233;48.608;8.838;2022-09-30T02:16:53;4.80;;;4.40;;
32292;SDS011;43233;48.608;8.838;2022-09-30T02:22:01;6.57;;;4.00;;
32292;SDS011;43233;48.608;8.838;2022-09-30T02:24:35;5.30;;;4.60;;
32292;SDS011;43233;48.608;8.838;2022-09-30T02:27:04;8.90;;;4.70;;
32292;SDS011;43233;48.608;8.838;2022-09-30T02:29:35;5.03;;;4.50;;
32292;SDS011;43233;48.608;8.838;2022-09-30T02:32:06;4.30;;;3.90;;
32292;SDS011;43233;48.608;8.838;2022-09-30T02:34:38;4.47;;;4.07;;
32292;SDS011;43233;48.608;8.838;2022-09-30T02:37:14;4.63;;;4.23;;
32292;SDS011;43233;48.608;8.838;2022-09-30T02:39:50;4.47;;;4.07;;
32292;SDS011;43233;48.608;8.838;2022-09-30T02:42:27;5.30;;;4.40;;
32292;SDS011;43233;48.608;8.838;2022-09-30T02:44:56;6.73;;;4.40;;
32292;SDS011;43233;48.608;8.838;2022-09-30T02:50:15;5.37;;;4.87;;
32292;SDS011;43233;48.608;8.838;2022-09-30T02:55:28;6.10;;;4.40;;
32292;SDS011;43233;48.608;8.838;2022-09-30T02:58:16;5.00;;;4.30;;
32292;SDS011;43233;48.608;8.838;2022-09-30T03:00:46;4.30;;;3.80;;
32292;SDS011;43233;48.608;8.838;2022-09-30T03:03:18;4.87;;;3.70;;
32292;SDS011;43233;48.608;8.838;2022-09-30T03:05:52;6.60;;;4.10;;
32292;SDS011;43233;48.608;8.838;2022-09-30T03:08:18;3.93;;;3.63;;
32292;SDS011;43233;48.608;8.838;2022-09-30T03:10:46;4.80;;;3.60;;
32292;SDS011;43233;48.608;8.838;2022-09-30T03:21:25;6.40;;;4.07;;
32292;SDS011;43233;48.608;8.838;2022-09-30T03:29:51;4.67;;;3.90;;
32292;SDS011;43233;48.608;8.838;2022-09-30T03:38:12;4.90;;;4.00;;
32292;SDS011;43233;48.608;8.838;2022-09-30T03:40:45;5.00;;;3.90;;
32292;SDS011;43233;48.608;8.838;2022-09-30T03:43:34;7.37;;;4.30;;
32292;SDS011;43233;48.608;8.838;2022-09-30T03:46:29;3.70;;;3.40;;
32292;SDS011;43233;48.608;8.838;2022-09-30T03:49:04;5.80;;;4.40;;
32292;SDS011;43233;48.608;8.838;2022-09-30T03:51:36;5.60;;;4.03;;
32292;SDS011;43233;48.608;8.838;2022-09-30T03:54:07;5.73;;;4.20;;
32292;SDS011;43233;48.608;8.838;2022-09-30T03:56:34;8.23;;;3.90;;
32292;SDS011;43233;48.608;8.838;2022-09-30T03:59:01;4.57;;;4.13;;
32292;SDS011;43233;48.608;8.838;2022-09-30T04:01:27;9.07;;;4.57;;
32292;SDS011;43233;48.608;8.838;2022-09-30T04:03:53;5.30;;;4.27;;
32292;SDS011;43233;48.608;8.838;2022-09-30T04:06:20;7.57;;;4.30;;
32292;SDS011;43233;48.608;8.838;2022-09-30T04:08:47;5.60;;;4.70;;
32292;SDS011;43233;48.608;8.838;2022-09-30T04:11:13;5.80;;;4.03;;
32292;SDS011;43233;48.608;8.838;2022-09-30T04:13:40;5.50;;;4.50;;
32292;SDS011;43233;48.608;8.838;2022-09-30T04:16:06;5.20;;;4.37;;
32292;SDS011;43233;48.608;8.838;2022-09-30T04:18:35;4.80;;;3.80;;
32292;SDS011;43233;48.608;8.838;2022-09-30T04:21:05;6.70;;;3.83;;
32292;SDS011;43233;48.608;8.838;2022-09-30T04:23:35;5.77;;;4.97;;
32292;SDS011;43233;48.608;8.838;2022-09-30T04:26:02;8.40;;;4.60;;
32292;SDS011;43233;48.608;8.838;2022-09-30T04:28:29;4.93;;;4.47;;
32292;SDS011;43233;48.608;8.838;2022-09-30T04:30:57;7.73;;;5.03;;
32292;SDS011;43233;48.608;8.838;2022-09-30T04:33:24;5.67;;;4.50;;
32292;SDS011;43233;48.608;8.838;2022-09-30T04:35:52;7.03;;;4.67;;
32292;SDS011;43233;48.608;8.838;2022-09-30T04:38:22;5.27;;;4.67;;
32292;SDS011;43233;48.608;8.838;2022-09-30T04:40:51;5.90;;;5.33;;
32292;SDS011;43233;48.608;8.838;2022-09-30T04:43:21;9.63;;;4.70;;
32292;SDS011;43233;48.608;8.838;2022-09-30T04:45:47;6.93;;;5.07;;
32292;SDS011;43233;48.608;8.838;2022-09-30T04:48:14;6.27;;;4.80;;
32292;SDS011;43233;48.608;8.838;2022-09-30T04:50:40;5.60;;;4.67;;
32292;SDS011;43233;48.608;8.838;2022-09-30T04:53:07;5.70;;;4.80;;
32292;SDS011;43233;48.608;8.838;2022-09-30T04:55:35;6.77;;;5.70;;
32292;SDS011;43233;48.608;8.838;2022-09-30T04:58:01;5.00;;;4.37;;
32292;SDS011;43233;48.608;8.838;2022-09-30T05:00:27;5.17;;;4.67;;
32292;SDS011;43233;48.608;8.838;2022-09-30T05:02:52;4.70;;;4.17;;
32292;SDS011;43233;48.608;8.838;2022-09-30T05:05:18;5.90;;;4.80;;
32292;SDS011;43233;48.608;8.838;2022-09-30T05:07:44;7.20;;;5.40;;
32292;SDS011;43233;48.608;8.838;2022-09-30T05:10:10;9.40;;;5.60;;
32292;SDS011;43233;48.608;8.838;2022-09-30T05:12:36;5.97;;;4.70;;
32292;SDS011;43233;48.608;8.838;2022-09-30T05:15:03;5.33;;;4.57;;
32292;SDS011;43233;48.608;8.838;2022-09-30T05:17:29;8.53;;;4.80;;
32292;SDS011;43233;48.608;8.838;2022-09-30T05:19:56;9.00;;;5.80;;
32292;SDS011;43233;48.608;8.838;2022-09-30T05:22:21;9.57;;;5.47;;
32292;SDS011;43233;48.608;8.838;2022-09-30T05:24:49;8.80;;;4.83;;
32292;SDS011;43233;48.608;8.838;2022-09-30T05:27:15;7.03;;;4.90;;
32292;SDS011;43233;48.608;8.838;2022-09-30T05:29:42;9.80;;;5.40;;
32292;SDS011;43233;48.608;8.838;2022-09-30T05:32:08;8.80;;;6.53;;
32292;SDS011;43233;48.608;8.838;2022-09-30T05:34:34;7.30;;;5.70;;
32292;SDS011;43233;48.608;8.838;2022-09-30T05:37:01;9.77;;;6.30;;
32292;SDS011;43233;48.608;8.838;2022-09-30T05:39:26;7.37;;;5.80;;
32292;SDS011;43233;48.608;8.838;2022-09-30T05:41:54;7.10;;;5.10;;
32292;SDS011;43233;48.608;8.838;2022-09-30T05:44:20;6.40;;;5.20;;
32292;SDS011;43233;48.608;8.838;2022-09-30T05:46:46;8.00;;;6.00;;
32292;SDS011;43233;48.608;8.838;2022-09-30T05:49:12;6.03;;;4.97;;
32292;SDS011;43233;48.608;8.838;2022-09-30T05:51:37;5.90;;;5.30;;
32292;SDS011;43233;48.608;8.838;2022-09-30T05:54:03;6.47;;;5.63;;
32292;SDS011;43233;48.608;8.838;2022-09-30T05:56:29;5.93;;;5.10;;
32292;SDS011;43233;48.608;8.838;2022-09-30T05:58:54;5.90;;;4.80;;
32292;SDS011;43233;48.608;8.838;2022-09-30T06:01:20;7.00;;;5.80;;
32292;SDS011;43233;48.608;8.838;2022-09-30T06:03:46;7.63;;;5.80;;
32292;SDS011;43233;48.608;8.838;2022-09-30T06:06:12;6.40;;;5.30;;
32292;SDS011;43233;48.608;8.838;2022-09-30T06:08:39;5.77;;;5.17;;
32292;SDS011;43233;48.608;8.838;2022-09-30T06:11:11;6.67;;;5.47;;
32292;SDS011;43233;48.608;8.838;2022-09-30T06:13:40;5.80;;;4.90;;
32292;SDS011;43233;48.608;8.838;2022-09-30T06:16:06;6.50;;;5.43;;
32292;SDS011;43233;48.608;8.838;2022-09-30T06:18:34;7.87;;;5.60;;
32292;SDS011;43233;48.608;8.838;2022-09-30T06:21:01;6.43;;;4.93;;
32292;SDS011;43233;48.608;8.838;2022-09-30T06:23:28;9.67;;;5.67;;
32292;SDS011;43233;48.608;8.838;2022-09-30T06:25:55;6.87;;;5.70;;
32292;SDS011;43233;48.608;8.838;2022-09-30T06:28:22;6.27;;;5.67;;
32292;SDS011;43233;48.608;8.838;2022-09-30T06:30:48;6.53;;;5.77;;
32292;SDS011;43233;48.608;8.838;2022-09-30T06:33:14;8.30;;;6.30;;
32292;SDS011;43233;48.608;8.838;2022-09-30T06:35:41;8.23;;;6.30;;
32292;SDS011;43233;48.608;8.838;2022-09-30T06:38:07;9.17;;;6.43;;
32292;SDS011;43233;48.608;8.838;2022-09-30T06:40:39;12.83;;;6.03;;
32292;SDS011;43233;48.608;8.838;2022-09-30T06:43:05;6.73;;;5.90;;
32292;SDS011;43233;48.608;8.838;2022-09-30T06:45:31;9.80;;;6.37;;
32292;SDS011;43233;48.608;8.838;2022-09-30T06:47:59;7.20;;;5.80;;
32292;SDS011;43233;48.608;8.838;2022-09-30T06:50:27;9.73;;;5.83;;
32292;SDS011;43233;48.608;8.838;2022-09-30T06:52:57;13.67;;;6.50;;
32292;SDS011;43233;48.608;8.838;2022-09-30T06:55:28;8.20;;;6.47;;
32292;SDS011;43233;48.608;8.838;2022-09-30T06:57:54;7.73;;;5.97;;
32292;SDS011;43233;48.608;8.838;2022-09-30T07:00:21;9.37;;;6.00;;
32292;SDS011;43233;48.608;8.838;2022-09-30T07:02:48;9.70;;;6.80;;
32292;SDS011;43233;48.608;8.838;2022-09-30T07:05:14;8.53;;;6.63;;
32292;SDS011;43233;48.608;8.838;2022-09-30T07:07:41;7.70;;;6.50;;
32292;SDS011;43233;48.608;8.838;2022-09-30T07:10:07;7.43;;;6.23;;
32292;SDS011;43233;48.608;8.838;2022-09-30T07:12:34;12.93;;;6.70;;
32292;SDS011;43233;48.608;8.838;2022-09-30T07:15:00;10.00;;;6.77;;
32292;SDS011;43233;48.608;8.838;2022-09-30T07:17:26;8.40;;;5.90;;
32292;SDS011;43233;48.608;8.838;2022-09-30T07:19:53;10.00;;;6.90;;
32292;SDS011;43233;48.608;8.838;2022-09-30T07:22:19;9.80;;;6.30;;
32292;SDS011;43233;48.608;8.838;2022-09-30T07:24:57;7.97;;;6.93;;
32292;SDS011;43233;48.608;8.838;2022-09-30T07:27:25;6.80;;;5.93;;
32292;SDS011;43233;48.608;8.838;2022-09-30T07:29:52;7.30;;;5.87;;
32292;SDS011;43233;48.608;8.838;2022-09-30T07:32:18;10.40;;;6.50;;
32292;SDS011;43233;48.608;8.838;2022-09-30T07:34:45;8.57;;;5.90;;
32292;SDS011;43233;48.608;8.838;2022-09-30T07:37:11;11.10;;;7.13;;
32292;SDS011;43233;48.608;8.838;2022-09-30T07:39:39;6.80;;;6.13;;
32292;SDS011;43233;48.608;8.838;2022-09-30T07:42:07;17.10;;;7.10;;
32292;SDS011;43233;48.608;8.838;2022-09-30T07:44:32;11.50;;;6.80;;
32292;SDS011;43233;48.608;8.838;2022-09-30T07:47:01;6.93;;;6.23;;
32292;SDS011;43233;48.608;8.838;2022-09-30T07:49:27;10.93;;;8.00;;
32292;SDS011;43233;48.608;8.838;2022-09-30T07:51:53;9.90;;;8.83;;
32292;SDS011;43233;48.608;8.838;2022-09-30T07:54:22;7.73;;;6.90;;
32292;SDS011;43233;48.608;8.838;2022-09-30T07:56:50;8.97;;;6.20;;
32292;SDS011;43233;48.608;8.838;2022-09-30T07:59:17;10.80;;;7.30;;
32292;SDS011;43233;48.608;8.838;2022-09-30T08:01:44;10.50;;;8.67;;
32292;SDS011;43233;48.608;8.838;2022-09-30T08:04:10;10.13;;;8.27;;
32292;SDS011;43233;48.608;8.838;2022-09-30T08:06:38;12.37;;;8.87;;
32292;SDS011;43233;48.608;8.838;2022-09-30T08:09:06;16.30;;;10.60;;
32292;SDS011;43233;48.608;8.838;2022-09-30T08:11:33;14.67;;;11.20;;
32292;SDS011;43233;48.608;8.838;2022-09-30T08:14:01;15.43;;;10.67;;
32292;SDS011;43233;48.608;8.838;2022-09-30T08:16:27;10.70;;;9.20;;
32292;SDS011;43233;48.608;8.838;2022-09-30T08:18:57;12.80;;;9.10;;
32292;SDS011;43233;48.608;8.838;2022-09-30T08:21:25;15.43;;;11.70;;
32292;SDS011;43233;48.608;8.838;2022-09-30T08:23:51;17.10;;;12.43;;
32292;SDS011;43233;48.608;8.838;2022-09-30T08:26:16;18.37;;;12.17;;
32292;SDS011;43233;48.608;8.838;2022-09-30T08:28:42;14.33;;;9.60;;
32292;SDS011;43233;48.608;8.838;2022-09-30T08:31:13;12.50;;;8.90;;
32292;SDS011;43233;48.608;8.838;2022-09-30T08:33:43;17.03;;;12.43;;
32292;SDS011;43233;48.608;8.838;2022-09-30T08:36:10;24.57;;;13.53;;
32292;SDS011;43233;48.608;8.838;2022-09-30T08:38:54;22.60;;;12.97;;
32292;SDS011;43233;48.608;8.838;2022-09-30T08:47:19;14.47;;;9.97;;
32292;SDS011;43233;48.608;8.838;2022-09-30T08:50:10;15.50;;;10.30;;
32292;SDS011;43233;48.608;8.838;2022-09-30T08:52:43;15.90;;;9.83;;
32292;SDS011;43233;48.608;8.838;2022-09-30T08:55:15;14.03;;;11.87;;
32292;SDS011;43233;48.608;8.838;2022-09-30T08:58:03;15.37;;;11.10;;
32292;SDS011;43233;48.608;8.838;2022-09-30T09:00:31;15.90;;;10.27;;
32292;SDS011;43233;48.608;8.838;2022-09-30T09:02:58;13.50;;;10.50;;
32292;SDS011;43233;48.608;8.838;2022-09-30T09:11:10;15.57;;;11.03;;
32292;SDS011;43233;48.608;8.838;2022-09-30T09:13:56;11.90;;;9.50;;
32292;SDS011;43233;48.608;8.838;2022-09-30T09:19:19;12.57;;;9.47;;
32292;SDS011;43233;48.608;8.838;2022-09-30T09:21:53;12.43;;;10.10;;
32292;SDS011;43233;48.608;8.838;2022-09-30T09:24:25;10.10;;;7.97;;
32292;SDS011;43233;48.608;8.838;2022-09-30T09:27:02;13.13;;;8.47;;
32292;SDS011;43233;48.608;8.838;2022-09-30T09:30:04;8.40;;;7.33;;
32292;SDS011;43233;48.608;8.838;2022-09-30T09:32:33;9.63;;;7.40;;
32292;SDS011;43233;48.608;8.838;2022-09-30T09:35:00;8.87;;;7.30;;
32292;SDS011;43233;48.608;8.838;2022-09-30T09:48:36;8.83;;;6.53;;
32292;SDS011;43233;48.608;8.838;2022-09-30T09:51:02;10.77;;;6.50;;
32292;SDS011;43233;48.608;8.838;2022-09-30T09:56:14;8.20;;;6.17;;
32292;SDS011;43233;48.608;8.838;2022-09-30T10:01:32;5.57;;;5.03;;
32292;SDS011;43233;48.608;8.838;2022-09-30T10:09:23;6.60;;;5.60;;
32292;SDS011;43233;48.608;8.838;2022-09-30T10:14:36;8.73;;;6.00;;
32292;SDS011;43233;48.608;8.838;2022-09-30T10:17:19;7.00;;;5.57;;
32292;SDS011;43233;48.608;8.838;2022-09-30T10:19:51;7.70;;;5.73;;
32292;SDS011;43233;48.608;8.838;2022-09-30T10:22:22;8.93;;;5.80;;
32292;SDS011;43233;48.608;8.838;2022-09-30T10:24:51;10.80;;;5.90;;
32292;SDS011;43233;48.608;8.838;2022-09-30T10:27:32;7.67;;;4.50;;
32292;SDS011;43233;48.608;8.838;2022-09-30T10:30:01;5.83;;;4.63;;
32292;SDS011;43233;48.608;8.838;2022-09-30T10:32:26;5.10;;;4.27;;
32292;SDS011;43233;48.608;8.838;2022-09-30T10:34:54;6.60;;;4.77;;
32292;SDS011;43233;48.608;8.838;2022-09-30T10:37:25;10.63;;;4.73;;
32292;SDS011;43233;48.608;8.838;2022-09-30T10:42:26;5.80;;;4.67;;
32292;SDS011;43233;48.608;8.838;2022-09-30T10:45:15;6.23;;;4.73;;
32292;SDS011;43233;48.608;8.838;2022-09-30T10:47:52;8.27;;;5.27;;
32292;SDS011;43233;48.608;8.838;2022-09-30T10:50:20;6.13;;;4.93;;
32292;SDS011;43233;48.608;8.838;2022-09-30T10:52:54;4.63;;;4.13;;
32292;SDS011;43233;48.608;8.838;2022-09-30T10:55:30;8.37;;;5.20;;
32292;SDS011;43233;48.608;8.838;2022-09-30T11:00:52;6.33;;;3.83;;
32292;SDS011;43233;48.608;8.838;2022-09-30T11:03:36;5.77;;;4.50;;
32292;SDS011;43233;48.608;8.838;2022-09-30T11:06:13;3.60;;;3.13;;
32292;SDS011;43233;48.608;8.838;2022-09-30T11:08:47;6.33;;;4.40;;
32292;SDS011;43233;48.608;8.838;2022-09-30T11:11:20;6.43;;;4.33;;
32292;SDS011;43233;48.608;8.838;2022-09-30T11:24:52;9.20;;;4.20;;
32292;SDS011;43233;48.608;8.838;2022-09-30T11:43:15;6.07;;;3.57;;
32292;SDS011;43233;48.608;8.838;2022-09-30T11:46:14;4.93;;;4.20;;
32292;SDS011;43233;48.608;8.838;2022-09-30T11:49:00;3.97;;;3.23;;
32292;SDS011;43233;48.608;8.838;2022-09-30T12:00:08;7.20;;;3.37;;
32292;SDS011;43233;48.608;8.838;2022-09-30T12:02:59;4.73;;;2.83;;
32292;SDS011;43233;48.608;8.838;2022-09-30T12:05:48;3.30;;;2.77;;
32292;SDS011;43233;48.608;8.838;2022-09-30T12:08:33;3.00;;;2.70;;
32292;SDS011;43233;48.608;8.838;2022-09-30T12:11:12;3.73;;;3.33;;
32292;SDS011;43233;48.608;8.838;2022-09-30T12:13:49;3.80;;;3.20;;
32292;SDS011;43233;48.608;8.838;2022-09-30T12:16:19;3.23;;;2.93;;
32292;SDS011;43233;48.608;8.838;2022-09-30T12:18:50;2.93;;;2.63;;
32292;SDS011;43233;48.608;8.838;2022-09-30T12:21:37;2.33;;;2.17;;
32292;SDS011;43233;48.608;8.838;2022-09-30T12:24:10;2.07;;;1.97;;
32292;SDS011;43233;48.608;8.838;2022-09-30T12:26:52;1.87;;;1.77;;
32292;SDS011;43233;48.608;8.838;2022-09-30T12:29:23;6.67;;;2.80;;
32292;SDS011;43233;48.608;8.838;2022-09-30T12:40:41;2.87;;;1.60;;
32292;SDS011;43233;48.608;8.838;2022-09-30T12:49:18;3.30;;;2.00;;
32292;SDS011;43233;48.608;8.838;2022-09-30T12:51:48;2.27;;;2.07;;
32292;SDS011;43233;48.608;8.838;2022-09-30T12:54:22;3.43;;;1.80;;
32292;SDS011;43233;48.608;8.838;2022-09-30T12:56:52;3.10;;;2.00;;
32292;SDS011;43233;48.608;8.838;2022-09-30T12:59:24;2.00;;;1.80;;
32292;SDS011;43233;48.608;8.838;2022-09-30T13:01:53;1.40;;;1.17;;
32292;SDS011;43233;48.608;8.838;2022-09-30T13:09:32;1.57;;;1.20;;
32292;SDS011;43233;48.608;8.838;2022-09-30T13:30:27;1.90;;;1.43;;
32292;SDS011;43233;48.608;8.838;2022-09-30T13:43:17;1.80;;;1.70;;
32292;SDS011;43233;48.608;8.838;2022-09-30T13:45:48;2.97;;;1.80;;
32292;SDS011;43233;48.608;8.838;2022-09-30T13:48:17;2.20;;;2.00;;
32292;SDS011;43233;48.608;8.838;2022-09-30T13:50:52;2.23;;;2.00;;
32292;SDS011;43233;48.608;8.838;2022-09-30T13:56:03;1.90;;;1.53;;
32292;SDS011;43233;48.608;8.838;2022-09-30T13:58:43;1.73;;;1.60;;
32292;SDS011;43233;48.608;8.838;2022-09-30T14:15:48;1.30;;;1.20;;
32292;SDS011;43233;48.608;8.838;2022-09-30T14:23:40;2.63;;;1.60;;
32292;SDS011;43233;48.608;8.838;2022-09-30T14:28:50;1.77;;;1.67;;
32292;SDS011;43233;48.608;8.838;2022-09-30T14:31:31;2.07;;;1.87;;
32292;SDS011;43233;48.608;8.838;2022-09-30T14:33:57;1.93;;;1.70;;
32292;SDS011;43233;48.608;8.838;2022-09-30T14:36:23;2.60;;;1.50;;
32292;SDS011;43233;48.608;8.838;2022-09-30T14:38:59;5.17;;;1.80;;
32292;SDS011;43233;48.608;8.838;2022-09-30T14:41:26;2.40;;;1.57;;
32292;SDS011;43233;48.608;8.838;2022-09-30T14:43:54;1.70;;;1.60;;
32292;SDS011;43233;48.608;8.838;2022-09-30T14:49:02;2.27;;;1.77;;
32292;SDS011;43233;48.608;8.838;2022-09-30T14:51:37;1.73;;;1.63;;
32292;SDS011;43233;48.608;8.838;2022-09-30T14:54:14;1.80;;;1.70;;
32292;SDS011;43233;48.608;8.838;2022-09-30T14:56:53;3.97;;;1.73;;
32292;SDS011;43233;48.608;8.838;2022-09-30T14:59:20;5.70;;;1.60;;
32292;SDS011;43233;48.608;8.838;2022-09-30T15:01:57;1.90;;;1.70;;
32292;SDS011;43233;48.608;8.838;2022-09-30T15:04:28;3.17;;;1.97;;
32292;SDS011;43233;48.608;8.838;2022-09-30T15:06:58;2.30;;;1.50;;
32292;SDS011;43233;48.608;8.838;2022-09-30T15:09:34;1.83;;;1.53;;
32292;SDS011;43233;48.608;8.838;2022-09-30T15:12:09;3.63;;;1.40;;
32292;SDS011;43233;48.608;8.838;2022-09-30T15:14:47;1.67;;;1.43;;
32292;SDS011;43233;48.608;8.838;2022-09-30T15:17:19;2.20;;;1.70;;
32292;SDS011;43233;48.608;8.838;2022-09-30T15:19:47;1.77;;;1.60;;
32292;SDS011;43233;48.608;8.838;2022-09-30T15:22:14;1.70;;;1.60;;
32292;SDS011;43233;48.608;8.838;2022-09-30T15:24:41;2.43;;;2.17;;
32292;SDS011;43233;48.608;8.838;2022-09-30T15:27:13;16.80;;;9.90;;
32292;SDS011;43233;48.608;8.838;2022-09-30T15:29:55;41.53;;;23.07;;
32292;SDS011;43233;48.608;8.838;2022-09-30T15:32:23;19.03;;;10.20;;
32292;SDS011;43233;48.608;8.838;2022-09-30T15:34:52;6.23;;;4.93;;
32292;SDS011;43233;48.608;8.838;2022-09-30T15:37:22;3.07;;;2.70;;
32292;SDS011;43233;48.608;8.838;2022-09-30T15:39:50;5.40;;;4.33;;
32292;SDS011;43233;48.608;8.838;2022-09-30T15:42:35;3.50;;;3.17;;
32292;SDS011;43233;48.608;8.838;2022-09-30T15:48:00;2.87;;;2.40;;
32292;SDS011;43233;48.608;8.838;2022-09-30T15:50:46;2.43;;;2.13;;
32292;SDS011;43233;48.608;8.838;2022-09-30T15:55:43;1.77;;;1.67;;
32292;SDS011;43233;48.608;8.838;2022-09-30T16:03:49;2.60;;;2.40;;
32292;SDS011;43233;48.608;8.838;2022-09-30T16:06:19;3.53;;;3.23;;
32292;SDS011;43233;48.608;8.838;2022-09-30T16:08:51;3.43;;;3.13;;
32292;SDS011;43233;48.608;8.838;2022-09-30T16:11:30;4.50;;;4.10;;
32292;SDS011;43233;48.608;8.838;2022-09-30T16:14:07;5.10;;;4.13;;
32292;SDS011;43233;48.608;8.838;2022-09-30T16:16:49;3.10;;;2.90;;
32292;SDS011;43233;48.608;8.838;2022-09-30T16:19:17;3.43;;;1.80;;
32292;SDS011;43233;48.608;8.838;2022-09-30T16:21:45;2.50;;;2.30;;
32292;SDS011;43233;48.608;8.838;2022-09-30T16:29:49;4.00;;;1.60;;
32292;SDS011;43233;48.608;8.838;2022-09-30T16:32:15;3.83;;;2.57;;
32292;SDS011;43233;48.608;8.838;2022-09-30T16:34:41;3.53;;;3.23;;
32292;SDS011;43233;48.608;8.838;2022-09-30T16:37:10;8.77;;;6.20;;
32292;SDS011;43233;48.608;8.838;2022-09-30T16:39:38;13.73;;;5.40;;
32292;SDS011;43233;48.608;8.838;2022-09-30T16:42:05;2.90;;;2.60;;
32292;SDS011;43233;48.608;8.838;2022-09-30T16:44:31;2.53;;;1.80;;
32292;SDS011;43233;48.608;8.838;2022-09-30T16:47:00;2.27;;;2.07;;
32292;SDS011;43233;48.608;8.838;2022-09-30T16:49:26;3.10;;;1.97;;
32292;SDS011;43233;48.608;8.838;2022-09-30T16:51:52;2.23;;;2.00;;
32292;SDS011;43233;48.608;8.838;2022-09-30T16:54:18;2.30;;;2.10;;
32292;SDS011;43233;48.608;8.838;2022-09-30T16:56:43;3.67;;;2.00;;
32292;SDS011;43233;48.608;8.838;2022-09-30T16:59:11;2.07;;;1.87;;
32292;SDS011;43233;48.608;8.838;2022-09-30T17:01:41;2.20;;;2.10;;
32292;SDS011;43233;48.608;8.838;2022-09-30T17:04:07;4.90;;;2.30;;
32292;SDS011;43233;48.608;8.838;2022-09-30T17:06:33;4.63;;;2.37;;
32292;SDS011;43233;48.608;8.838;2022-09-30T17:09:00;2.67;;;2.13;;
32292;SDS011;43233;48.608;8.838;2022-09-30T17:11:28;2.00;;;1.90;;
32292;SDS011;43233;48.608;8.838;2022-09-30T17:13:56;3.90;;;2.20;;
32292;SDS011;43233;48.608;8.838;2022-09-30T17:16:25;4.90;;;4.30;;
32292;SDS011;43233;48.608;8.838;2022-09-30T17:18:51;5.00;;;3.30;;
32292;SDS011;43233;48.608;8.838;2022-09-30T17:21:18;3.27;;;2.97;;
32292;SDS011;43233;48.608;8.838;2022-09-30T17:23:44;3.30;;;3.00;;
32292;SDS011;43233;48.608;8.838;2022-09-30T17:26:10;3.60;;;2.90;;
32292;SDS011;43233;48.608;8.838;2022-09-30T17:28:36;4.13;;;2.30;;
32292;SDS011;43233;48.608;8.838;2022-09-30T17:31:02;2.50;;;2.40;;
32292;SDS011;43233;48.608;8.838;2022-09-30T17:33:35;6.97;;;3.00;;
32292;SDS011;43233;48.608;8.838;2022-09-30T17:36:09;4.13;;;2.80;;
32292;SDS011;43233;48.608;8.838;2022-09-30T17:38:36;4.33;;;2.60;;
32292;SDS011;43233;48.608;8.838;2022-09-30T17:41:03;5.27;;;2.50;;
32292;SDS011;43233;48.608;8.838;2022-09-30T17:43:48;7.23;;;3.87;;
32292;SDS011;43233;48.608;8.838;2022-09-30T17:46:14;8.83;;;5.70;;
32292;SDS011;43233;48.608;8.838;2022-09-30T17:48:43;5.93;;;2.90;;
32292;SDS011;43233;48.608;8.838;2022-09-30T17:51:10;2.50;;;2.30;;
32292;SDS011;43233;48.608;8.838;2022-09-30T17:53:37;7.60;;;2.10;;
32292;SDS011;43233;48.608;8.838;2022-09-30T17:56:03;4.77;;;2.50;;
32292;SDS011;43233;48.608;8.838;2022-09-30T17:58:34;3.27;;;2.63;;
32292;SDS011;43233;48.608;8.838;2022-09-30T18:01:04;1.80;;;1.70;;
32292;SDS011;43233;48.608;8.838;2022-09-30T18:03:33;14.13;;;2.10;;
32292;SDS011;43233;48.608;8.838;2022-09-30T18:05:59;2.80;;;2.60;;
32292;SDS011;43233;48.608;8.838;2022-09-30T18:08:26;3.17;;;2.87;;
32292;SDS011;43233;48.608;8.838;2022-09-30T18:10:55;3.20;;;2.93;;
32292;SDS011;43233;48.608;8.838;2022-09-30T18:13:22;2.30;;;2.10;;
32292;SDS011;43233;48.608;8.838;2022-09-30T18:15:51;2.73;;;2.50;;
32292;SDS011;43233;48.608;8.838;2022-09-30T18:18:17;3.30;;;3.00;;
32292;SDS011;43233;48.608;8.838;2022-09-30T18:20:44;5.77;;;4.40;;
32292;SDS011;43233;48.608;8.838;2022-09-30T18:23:11;2.90;;;2.80;;
32292;SDS011;43233;48.608;8.838;2022-09-30T18:25:37;3.40;;;2.83;;
32292;SDS011;43233;48.608;8.838;2022-09-30T18:28:05;3.30;;;2.87;;
32292;SDS011;43233;48.608;8.838;2022-09-30T18:30:33;3.33;;;2.83;;
32292;SDS011;43233;48.608;8.838;2022-09-30T18:32:59;5.53;;;3.17;;
32292;SDS011;43233;48.608;8.838;2022-09-30T18:35:25;3.27;;;3.07;;
32292;SDS011;43233;48.608;8.838;2022-09-30T18:37:51;3.10;;;2.80;;
32292;SDS011;43233;48.608;8.838;2022-09-30T18:40:18;6.40;;;5.60;;
32292;SDS011;43233;48.608;8.838;2022-09-30T18:42:51;6.10;;;4.70;;
32292;SDS011;43233;48.608;8.838;2022-09-30T18:45:33;11.93;;;4.93;;
32292;SDS011;43233;48.608;8.838;2022-09-30T18:48:07;5.83;;;4.57;;
32292;SDS011;43233;48.608;8.838;2022-09-30T18:50:33;6.53;;;4.40;;
32292;SDS011;43233;48.608;8.838;2022-09-30T18:52:59;7.20;;;4.50;;
32292;SDS011;43233;48.608;8.838;2022-09-30T18:55:30;4.97;;;4.13;;